Speegleville, Texas
Current Conditions -  °F | °C
As of 1:51 AM on Saturday 29 Nov 2014 (Local Time) from KACT Reporting Station
Clear Clear  
Wind Chill: 56°   Ceiling: Unl
Heat Index: 56°   Visibility: 10mi
Dew Point: 49°   Wind: 12mph
Humidity: 77%   Direction: 190°S
Pressure: 30.02"   Gusts: NA
Location:  31.5356°N, 97.1921°W
Report Text: KACT 290751Z 19010KT 10SM CLR 13/09 A3002 RMK AO2 SLP162 T01330094
Loading
Personal Weather Stations






























Interactive Weather Map New forecast layout! Learn more

10-Day Weather Forecast

Advertisements
Track Severe Weather on mobile